createdAt,value
2022-08-03T00:01:31.010Z,16.00
2022-08-03T00:06:37.321Z,15.92
2022-08-03T00:11:41.763Z,15.90
2022-08-03T00:16:45.774Z,15.90
2022-08-03T00:21:50.525Z,15.90
2022-08-03T00:26:54.872Z,15.90
2022-08-03T00:32:02.284Z,15.80
2022-08-03T00:37:06.824Z,15.80
2022-08-03T00:42:11.072Z,15.80
2022-08-03T00:47:15.295Z,15.80
2022-08-03T00:52:19.519Z,15.70
2022-08-03T00:57:23.882Z,15.70
2022-08-03T01:02:31.758Z,15.70
2022-08-03T01:08:33.248Z,15.66
2022-08-03T01:14:01.675Z,15.60
2022-08-03T01:19:19.893Z,15.60
2022-08-03T01:24:51.968Z,15.50
2022-08-03T01:30:04.055Z,15.50
2022-08-03T01:35:15.057Z,15.42
2022-08-03T01:40:22.837Z,15.40
2022-08-03T01:45:28.959Z,15.30
2022-08-03T01:50:41.030Z,15.30
2022-08-03T01:55:50.769Z,15.20
2022-08-03T02:01:02.004Z,15.12
2022-08-03T02:06:59.909Z,15.10
2022-08-03T02:11:37.639Z,15.10
2022-08-03T02:16:41.785Z,15.08
2022-08-03T02:21:56.673Z,15.00
2022-08-03T02:27:19.400Z,15.00
2022-08-03T02:32:35.236Z,15.00
2022-08-03T02:37:50.054Z,15.00
2022-08-03T02:43:00.941Z,15.00
2022-08-03T02:48:08.084Z,15.00
2022-08-03T02:53:14.687Z,15.00
2022-08-03T02:58:24.864Z,15.00
2022-08-03T03:03:35.301Z,15.10
2022-08-03T03:08:57.902Z,15.06
2022-08-03T03:14:04.423Z,15.00
2022-08-03T03:19:16.299Z,15.00
2022-08-03T03:24:21.706Z,15.06
2022-08-03T03:29:26.832Z,15.04
2022-08-03T03:34:31.890Z,15.10
2022-08-03T03:39:37.203Z,15.10
2022-08-03T03:44:41.289Z,15.18
2022-08-03T03:49:47.069Z,15.20
2022-08-03T03:54:58.920Z,15.30
2022-08-03T04:00:06.687Z,15.40
2022-08-03T04:05:29.859Z,15.42
2022-08-03T04:10:56.717Z,15.50
2022-08-03T04:16:02.640Z,15.60
2022-08-03T04:21:12.077Z,15.70
2022-08-03T04:26:22.068Z,15.78
2022-08-03T04:31:28.985Z,15.84
2022-08-03T04:36:40.936Z,15.90
2022-08-03T04:42:07.065Z,16.00
2022-08-03T04:47:14.079Z,16.10
2022-08-03T04:52:18.930Z,16.20
2022-08-03T04:57:23.693Z,16.30
2022-08-03T05:02:27.806Z,16.40
2022-08-03T05:07:35.508Z,16.60
2022-08-03T05:12:41.613Z,16.76
2022-08-03T05:17:45.950Z,17.00
2022-08-03T05:22:50.292Z,17.30
2022-08-03T05:27:54.464Z,17.72
2022-08-03T05:32:58.873Z,18.10
2022-08-03T05:38:04.661Z,18.66
2022-08-03T05:43:09.841Z,19.24
2022-08-03T05:48:13.832Z,19.80
2022-08-03T05:53:17.873Z,20.34
2022-08-03T05:58:22.010Z,21.00
2022-08-03T06:03:26.187Z,21.60
2022-08-03T06:08:30.390Z,22.10
2022-08-03T06:13:36.135Z,22.34
2022-08-03T06:18:41.222Z,22.60
2022-08-03T06:23:54.383Z,22.98
2022-08-03T06:28:59.836Z,23.10
2022-08-03T06:34:32.396Z,23.20
2022-08-03T06:39:32.960Z,23.20
2022-08-03T06:44:39.352Z,23.70
2022-08-03T06:49:43.928Z,24.30
2022-08-03T06:55:09.105Z,24.70
2022-08-03T07:00:14.521Z,25.10
2022-08-03T07:05:19.523Z,25.42
2022-08-03T07:10:24.163Z,25.60
2022-08-03T07:15:54.014Z,25.40
2022-08-03T07:20:53.290Z,25.10
2022-08-03T07:25:57.671Z,25.50
2022-08-03T07:31:01.905Z,25.90
2022-08-03T07:36:06.388Z,26.30
2022-08-03T07:41:10.690Z,26.80
2022-08-03T07:46:15.851Z,27.10
2022-08-03T07:51:20.080Z,27.50
2022-08-03T07:56:28.717Z,27.80
2022-08-03T08:01:36.393Z,28.10
2022-08-03T08:06:40.586Z,28.06
2022-08-03T08:11:44.948Z,28.10
2022-08-03T08:16:50.801Z,28.14
2022-08-03T08:22:02.457Z,28.10
2022-08-03T08:27:09.527Z,28.00
2022-08-03T08:32:16.279Z,28.00
2022-08-03T08:37:20.748Z,28.12
2022-08-03T08:42:25.625Z,28.26
2022-08-03T08:47:51.554Z,28.30
2022-08-03T08:53:01.674Z,28.52
2022-08-03T08:58:08.114Z,28.78
2022-08-03T09:03:29.186Z,29.00
2022-08-03T09:08:35.115Z,29.30
2022-08-03T09:13:39.804Z,29.60
2022-08-03T09:18:50.292Z,29.60
2022-08-03T09:24:03.183Z,29.50
2022-08-03T09:29:15.644Z,29.70
2022-08-03T09:34:26.109Z,30.30
2022-08-03T09:39:41.508Z,31.02
2022-08-03T09:44:52.325Z,31.20
2022-08-03T09:50:02.624Z,31.30
2022-08-03T09:56:30.644Z,31.50
2022-08-03T10:00:56.322Z,31.50
2022-08-03T10:06:16.015Z,31.40
2022-08-03T10:11:42.055Z,31.40
2022-08-03T10:16:48.559Z,31.40
2022-08-03T10:22:03.428Z,31.10
2022-08-03T10:27:12.105Z,31.38
2022-08-03T10:33:03.983Z,32.08
2022-08-03T10:38:25.968Z,32.30
2022-08-03T10:43:49.736Z,32.60
2022-08-03T10:48:55.305Z,32.90
2022-08-03T10:54:01.916Z,33.20
2022-08-03T10:59:06.219Z,32.84
2022-08-03T11:04:21.713Z,32.50
2022-08-03T11:09:26.767Z,32.60
2022-08-03T11:14:48.749Z,32.80
2022-08-03T11:19:56.947Z,32.96
2022-08-03T11:25:02.691Z,32.58
2022-08-03T11:30:14.363Z,32.40
2022-08-03T11:35:25.531Z,32.30
2022-08-03T11:40:43.593Z,32.10
2022-08-03T11:46:28.674Z,32.34
2022-08-03T11:51:34.824Z,33.20
2022-08-03T11:56:49.187Z,32.70
2022-08-03T12:02:17.546Z,32.30
2022-08-03T12:08:02.494Z,32.50
2022-08-03T12:12:46.933Z,32.50
2022-08-03T12:17:54.781Z,33.10
2022-08-03T12:23:10.336Z,32.60
2022-08-03T12:28:37.266Z,32.30
2022-08-03T12:34:07.355Z,32.10
2022-08-03T12:39:12.550Z,32.00
2022-08-03T12:44:16.937Z,32.30
2022-08-03T12:49:21.781Z,32.10
2022-08-03T12:54:32.518Z,32.00
2022-08-03T12:59:45.177Z,31.90
2022-08-03T13:04:58.373Z,32.20
2022-08-03T13:10:07.850Z,32.66
2022-08-03T13:15:13.039Z,32.70
2022-08-03T13:20:17.410Z,32.84
2022-08-03T13:25:22.410Z,32.10
2022-08-03T13:30:30.440Z,31.96
2022-08-03T13:35:34.932Z,31.80
2022-08-03T13:40:42.312Z,31.88
2022-08-03T13:45:51.192Z,32.08
2022-08-03T13:51:00.401Z,32.50
2022-08-03T13:56:06.846Z,32.60
2022-08-03T14:01:12.021Z,33.00
2022-08-03T14:06:16.834Z,33.40
2022-08-03T14:11:21.077Z,33.60
2022-08-03T14:16:25.323Z,33.70
2022-08-03T14:21:29.771Z,33.70
2022-08-03T14:26:33.801Z,34.00
2022-08-03T14:32:11.016Z,33.80
2022-08-03T14:37:03.562Z,33.58
2022-08-03T14:42:08.147Z,33.28
2022-08-03T14:47:15.417Z,33.10
2022-08-03T14:52:22.518Z,33.10
2022-08-03T14:57:27.913Z,32.90
2022-08-03T15:02:32.090Z,33.00
2022-08-03T15:07:36.360Z,33.00
2022-08-03T15:12:40.703Z,33.04
2022-08-03T15:18:00.347Z,34.88
2022-08-03T15:23:05.875Z,36.66
2022-08-03T15:28:10.096Z,37.58
2022-08-03T15:33:14.145Z,38.74
2022-08-03T15:38:18.978Z,39.86
2022-08-03T15:43:24.471Z,40.26
2022-08-03T15:48:28.586Z,40.84
2022-08-03T15:53:34.136Z,41.22
2022-08-03T15:59:09.649Z,41.20
2022-08-03T16:04:06.330Z,41.06
2022-08-03T16:09:23.936Z,40.80
2022-08-03T16:14:46.868Z,40.80
2022-08-03T16:20:00.319Z,40.10
2022-08-03T16:25:05.465Z,39.80
2022-08-03T16:30:24.296Z,39.80
2022-08-03T16:35:29.522Z,39.50
2022-08-03T16:40:35.691Z,39.10
2022-08-03T16:45:40.201Z,37.90
2022-08-03T16:50:45.154Z,37.08
2022-08-03T16:55:53.118Z,36.60
2022-08-03T17:01:10.888Z,36.30
2022-08-03T17:06:33.787Z,36.00
2022-08-03T17:11:46.723Z,35.66
2022-08-03T17:16:56.335Z,35.30
2022-08-03T17:22:13.365Z,35.00
2022-08-03T17:28:49.247Z,34.50
2022-08-03T17:32:57.584Z,33.08
2022-08-03T17:38:05.765Z,32.00
2022-08-03T17:44:13.111Z,31.20
2022-08-03T17:48:42.903Z,30.50
2022-08-03T17:54:01.509Z,29.92
2022-08-03T17:59:51.750Z,29.38
2022-08-03T18:04:57.381Z,28.90
2022-08-03T18:10:12.124Z,28.60
2022-08-03T18:15:31.957Z,28.30
2022-08-03T18:26:07.308Z,27.60
2022-08-03T18:31:59.466Z,27.20
2022-08-03T18:36:50.013Z,26.80
2022-08-03T18:41:54.602Z,26.44
2022-08-03T18:47:50.696Z,26.10
2022-08-03T18:53:23.824Z,25.70
2022-08-03T18:59:02.300Z,25.40
2022-08-03T19:04:16.895Z,25.20
2022-08-03T19:09:59.331Z,24.84
2022-08-03T19:15:12.720Z,24.50
2022-08-03T19:20:29.300Z,24.22
2022-08-03T19:25:41.477Z,23.90
2022-08-03T19:30:53.662Z,23.70
2022-08-03T19:36:15.791Z,23.50
2022-08-03T19:41:22.337Z,23.30
2022-08-03T19:46:31.664Z,23.10
2022-08-03T19:52:00.686Z,23.00
2022-08-03T19:57:07.332Z,22.86
2022-08-03T20:02:27.103Z,22.70
2022-08-03T20:07:33.389Z,22.50
2022-08-03T20:12:40.929Z,22.30
2022-08-03T20:17:56.617Z,22.10
2022-08-03T20:23:11.896Z,21.88
2022-08-03T20:28:32.106Z,21.70
2022-08-03T20:33:46.537Z,21.52
2022-08-03T20:38:57.606Z,21.40
2022-08-03T20:44:02.719Z,21.32
2022-08-03T20:49:07.843Z,21.20
2022-08-03T20:54:22.719Z,21.10
2022-08-03T20:59:50.206Z,21.00
2022-08-03T21:04:55.910Z,20.86
2022-08-03T21:10:05.291Z,20.80
2022-08-03T21:12:57.779Z,28.00
2022-08-03T21:16:03.249Z,20.60
2022-08-03T21:20:47.816Z,20.40
2022-08-03T21:25:53.148Z,20.30
2022-08-03T21:31:00.403Z,20.10
2022-08-03T21:36:05.142Z,20.00
2022-08-03T21:41:09.440Z,19.90
2022-08-03T21:46:18.976Z,19.80
2022-08-03T21:51:26.889Z,19.68
2022-08-03T21:56:40.815Z,19.50
2022-08-03T22:01:51.357Z,19.30
2022-08-03T22:07:00.164Z,19.20
2022-08-03T22:12:05.638Z,19.10
2022-08-03T22:17:10.051Z,19.00
2022-08-03T22:22:18.590Z,18.90
2022-08-03T22:27:30.711Z,18.80
2022-08-03T22:32:35.026Z,18.80
2022-08-03T22:37:41.562Z,18.76
2022-08-03T22:42:50.524Z,18.70
2022-08-03T22:47:58.937Z,18.60
2022-08-03T22:53:03.812Z,18.46
2022-08-03T22:58:08.009Z,18.30
2022-08-03T23:03:14.729Z,18.20
2022-08-03T23:08:25.663Z,18.14
2022-08-03T23:13:33.651Z,18.10
2022-08-03T23:18:43.038Z,18.00
2022-08-03T23:23:47.518Z,17.90
2022-08-03T23:28:56.077Z,17.86
2022-08-03T23:34:20.559Z,17.80
2022-08-03T23:39:29.429Z,17.70
2022-08-03T23:44:44.199Z,17.70
2022-08-03T23:49:48.418Z,17.60
2022-08-03T23:55:17.109Z,17.60
